Time;durP1;ratioP1;P1;durP2;ratioP2;P2;SDS_P1;SDS_P2;PMS_P1;PMS_P2;Temp;Humidity;BMP_temperature;BMP_pressure;BME280_temperature;BME280_humidity;BME280_pressure;Samples;Min_cycle;Max_cycle;Signal;HPM_P1;HPM_P2
2024/01/08 00:01:24;;;;;;;6.47;4.20;;;;;;;;;;5014677;28;20089;-86
2024/01/08 00:03:49;;;;;;;9.02;4.35;;;;;;;;;;5014461;28;20459;-86
2024/01/08 00:06:17;;;;;;;6.50;4.07;;;;;;;;;;5013823;28;20058;-86
2024/01/08 00:08:43;;;;;;;8.82;4.40;;;;;;;;;;5015374;28;20037;-86
2024/01/08 00:11:08;;;;;;;10.45;4.68;;;;;;;;;;5015831;28;20015;-86
2024/01/08 00:13:33;;;;;;;8.48;4.88;;;;;;;;;;5016324;28;20110;-86
2024/01/08 00:15:58;;;;;;;15.93;4.85;;;;;;;;;;5015647;28;20041;-86
2024/01/08 00:18:24;;;;;;;6.85;4.78;;;;;;;;;;5016037;28;20033;-86
2024/01/08 00:20:49;;;;;;;7.95;4.88;;;;;;;;;;5014473;28;20471;-85
2024/01/08 00:23:14;;;;;;;14.77;5.80;;;;;;;;;;5014834;28;20481;-86
2024/01/08 00:25:39;;;;;;;6.63;4.85;;;;;;;;;;5015990;28;20462;-87
2024/01/08 00:28:05;;;;;;;7.78;4.75;;;;;;;;;;5014552;28;20033;-86
2024/01/08 00:30:30;;;;;;;7.38;4.63;;;;;;;;;;5014688;28;20014;-86
2024/01/08 00:32:55;;;;;;;7.68;5.20;;;;;;;;;;5015062;28;20029;-85
2024/01/08 00:35:21;;;;;;;9.05;5.32;;;;;;;;;;5014501;28;20033;-86
2024/01/08 00:37:46;;;;;;;10.15;4.82;;;;;;;;;;5016104;28;20033;-86
2024/01/08 00:40:11;;;;;;;10.77;4.93;;;;;;;;;;5016213;28;20401;-86
2024/01/08 00:42:37;;;;;;;7.90;4.70;;;;;;;;;;5015488;28;20112;-86
2024/01/08 00:45:03;;;;;;;7.80;4.75;;;;;;;;;;5015525;28;20030;-86
2024/01/08 00:47:28;;;;;;;7.82;5.22;;;;;;;;;;5015090;28;20120;-86
2024/01/08 00:49:53;;;;;;;9.13;5.53;;;;;;;;;;5015966;28;20097;-86
2024/01/08 00:52:18;;;;;;;7.13;4.68;;;;;;;;;;5013617;28;20082;-86
2024/01/08 00:54:44;;;;;;;9.45;4.85;;;;;;;;;;5015587;28;20062;-86
2024/01/08 00:57:09;;;;;;;9.40;4.63;;;;;;;;;;5016011;28;20161;-85
2024/01/08 00:59:34;;;;;;;7.80;5.03;;;;;;;;;;5015133;28;20110;-85
2024/01/08 01:01:59;;;;;;;9.02;4.85;;;;;;;;;;5014729;28;20022;-85
2024/01/08 01:04:25;;;;;;;8.75;4.30;;;;;;;;;;5014483;28;20474;-85
2024/01/08 01:06:50;;;;;;;8.73;4.32;;;;;;;;;;5014932;28;20046;-85
2024/01/08 01:09:16;;;;;;;5.78;4.55;;;;;;;;;;5014681;28;20434;-85
2024/01/08 01:11:42;;;;;;;6.03;3.90;;;;;;;;;;5014805;28;20521;-86
2024/01/08 01:14:07;;;;;;;5.65;4.43;;;;;;;;;;5014640;28;20026;-85
2024/01/08 01:16:33;;;;;;;5.55;4.47;;;;;;;;;;5013830;28;20022;-85
2024/01/08 01:18:58;;;;;;;6.88;4.13;;;;;;;;;;5015259;28;20036;-85
2024/01/08 01:21:23;;;;;;;6.30;4.50;;;;;;;;;;5014905;28;20044;-86
2024/01/08 01:23:50;;;;;;;6.03;3.63;;;;;;;;;;5014612;28;20132;-86
2024/01/08 01:26:16;;;;;;;16.85;5.13;;;;;;;;;;5014706;28;20049;-86
2024/01/08 01:28:41;;;;;;;5.65;4.10;;;;;;;;;;5014642;28;20022;-86
2024/01/08 01:31:09;;;;;;;5.43;4.05;;;;;;;;;;5015035;28;20026;-85
2024/01/08 01:33:34;;;;;;;6.35;4.45;;;;;;;;;;5014157;28;20034;-85
2024/01/08 01:35:59;;;;;;;8.02;4.50;;;;;;;;;;5014057;28;20037;-86
2024/01/08 01:38:25;;;;;;;5.30;4.18;;;;;;;;;;5014065;28;20090;-86
2024/01/08 01:40:50;;;;;;;9.98;4.25;;;;;;;;;;5013436;28;20032;-86
2024/01/08 01:43:19;;;;;;;5.18;3.50;;;;;;;;;;5014103;28;20462;-86
2024/01/08 01:45:45;;;;;;;8.18;4.22;;;;;;;;;;5014338;28;20417;-85
2024/01/08 01:48:10;;;;;;;7.45;4.40;;;;;;;;;;5013652;28;20021;-86
2024/01/08 01:50:35;;;;;;;8.20;4.07;;;;;;;;;;5014043;28;20022;-85
2024/01/08 01:53:00;;;;;;;6.35;3.75;;;;;;;;;;5012987;28;20080;-85
2024/01/08 01:55:26;;;;;;;4.90;3.72;;;;;;;;;;5013302;28;20133;-86
2024/01/08 01:57:51;;;;;;;5.38;3.88;;;;;;;;;;5014000;28;20092;-86
2024/01/08 02:00:16;;;;;;;9.48;3.97;;;;;;;;;;5013261;28;20026;-86
2024/01/08 02:02:42;;;;;;;6.05;4.18;;;;;;;;;;5013350;28;20423;-86
2024/01/08 02:05:09;;;;;;;6.40;4.15;;;;;;;;;;5013118;28;20060;-86
2024/01/08 02:07:34;;;;;;;7.95;3.88;;;;;;;;;;5013690;28;20351;-86
2024/01/08 02:09:59;;;;;;;7.63;4.45;;;;;;;;;;5013222;28;20117;-86
2024/01/08 02:12:26;;;;;;;6.78;4.38;;;;;;;;;;5012262;28;20462;-86
2024/01/08 02:14:51;;;;;;;6.88;3.97;;;;;;;;;;5013168;28;20473;-86
2024/01/08 02:17:16;;;;;;;6.75;4.45;;;;;;;;;;5013322;28;20040;-86
2024/01/08 02:19:41;;;;;;;7.03;3.90;;;;;;;;;;5013416;28;20026;-87
2024/01/08 02:22:07;;;;;;;6.00;4.22;;;;;;;;;;5012203;28;20386;-86
2024/01/08 02:24:32;;;;;;;5.10;3.78;;;;;;;;;;5013479;28;20347;-85
2024/01/08 02:27:00;;;;;;;6.32;4.20;;;;;;;;;;5013094;28;20466;-86
2024/01/08 02:29:26;;;;;;;7.97;4.00;;;;;;;;;;5013401;28;20026;-87
2024/01/08 02:31:51;;;;;;;7.28;3.92;;;;;;;;;;5013733;28;20083;-86
2024/01/08 02:34:16;;;;;;;6.97;4.28;;;;;;;;;;5011836;28;20050;-86
2024/01/08 02:36:42;;;;;;;7.10;4.05;;;;;;;;;;5013374;28;20112;-85
2024/01/08 02:39:07;;;;;;;6.53;4.07;;;;;;;;;;5013282;28;20030;-86
2024/01/08 02:41:32;;;;;;;7.13;4.38;;;;;;;;;;5013303;28;20026;-85
2024/01/08 02:43:58;;;;;;;6.47;3.85;;;;;;;;;;5013391;28;20033;-86
2024/01/08 02:46:23;;;;;;;5.72;3.70;;;;;;;;;;5013149;28;20022;-86
2024/01/08 02:48:48;;;;;;;8.60;4.00;;;;;;;;;;5013104;28;20045;-86
2024/01/08 02:51:16;;;;;;;5.57;3.75;;;;;;;;;;5013505;28;20414;-86
2024/01/08 02:53:41;;;;;;;5.18;4.05;;;;;;;;;;5012303;28;20018;-86
2024/01/08 02:56:07;;;;;;;6.57;4.30;;;;;;;;;;5012603;28;20455;-85
2024/01/08 02:58:32;;;;;;;9.20;3.80;;;;;;;;;;5013293;28;20107;-84
2024/01/08 03:00:59;;;;;;;6.25;3.80;;;;;;;;;;5017392;28;20155;-85
2024/01/08 03:03:24;;;;;;;10.57;4.22;;;;;;;;;;5025225;28;20037;-85
2024/01/08 03:05:50;;;;;;;5.95;3.55;;;;;;;;;;5014386;28;20054;-86
2024/01/08 03:08:15;;;;;;;8.70;3.80;;;;;;;;;;5013079;28;20084;-85
2024/01/08 03:10:40;;;;;;;6.85;3.47;;;;;;;;;;5014232;28;20026;-85
2024/01/08 03:13:05;;;;;;;6.68;3.50;;;;;;;;;;5013239;28;20035;-87
2024/01/08 03:15:31;;;;;;;6.80;3.85;;;;;;;;;;5012974;28;20096;-86
2024/01/08 03:17:57;;;;;;;4.85;3.63;;;;;;;;;;5013243;28;20113;-86
2024/01/08 03:20:22;;;;;;;7.30;4.25;;;;;;;;;;5020418;28;20050;-82
2024/01/08 03:22:48;;;;;;;6.97;3.97;;;;;;;;;;5018759;28;20033;-84
2024/01/08 03:25:13;;;;;;;8.10;4.13;;;;;;;;;;5019650;28;20026;-85
2024/01/08 03:27:38;;;;;;;6.13;3.78;;;;;;;;;;5016954;28;20375;-84
2024/01/08 03:30:04;;;;;;;9.90;4.05;;;;;;;;;;5015616;28;20029;-86
2024/01/08 03:32:30;;;;;;;7.15;4.03;;;;;;;;;;5014909;28;20080;-85
2024/01/08 03:34:55;;;;;;;7.88;4.07;;;;;;;;;;5015265;28;20013;-85
2024/01/08 03:37:20;;;;;;;11.65;4.90;;;;;;;;;;5016653;28;20030;-87
2024/01/08 03:39:45;;;;;;;7.80;4.13;;;;;;;;;;5016588;28;20018;-86
2024/01/08 03:42:10;;;;;;;8.52;3.83;;;;;;;;;;5017305;28;20121;-86
2024/01/08 03:44:36;;;;;;;5.22;3.72;;;;;;;;;;5017332;28;20094;-86
2024/01/08 03:47:01;;;;;;;7.32;4.13;;;;;;;;;;5016676;28;20032;-87
2024/01/08 03:49:26;;;;;;;7.13;4.45;;;;;;;;;;5017010;28;20026;-88
2024/01/08 03:51:51;;;;;;;7.50;4.63;;;;;;;;;;5016436;28;20029;-89
2024/01/08 03:54:17;;;;;;;9.48;4.63;;;;;;;;;;5015179;28;20084;-89
2024/01/08 03:56:42;;;;;;;7.30;4.78;;;;;;;;;;5015929;28;20103;-89
2024/01/08 03:59:07;;;;;;;9.18;5.18;;;;;;;;;;5016126;28;20025;-88
2024/01/08 04:01:33;;;;;;;7.97;4.13;;;;;;;;;;4999075;28;20056;-86
2024/01/08 04:03:58;;;;;;;7.35;4.82;;;;;;;;;;5016203;28;20021;-87
2024/01/08 04:06:23;;;;;;;9.88;4.30;;;;;;;;;;5016012;28;20472;-88
2024/01/08 04:08:49;;;;;;;7.05;4.07;;;;;;;;;;5022022;28;20030;-87
2024/01/08 04:11:14;;;;;;;9.32;4.45;;;;;;;;;;5017910;28;20481;-88
2024/01/08 04:13:40;;;;;;;10.25;4.57;;;;;;;;;;5015400;28;20458;-87
2024/01/08 04:16:05;;;;;;;10.13;5.28;;;;;;;;;;5015455;28;20034;-88
2024/01/08 04:18:30;;;;;;;7.38;4.45;;;;;;;;;;5015702;28;20470;-88
2024/01/08 04:20:55;;;;;;;7.10;4.72;;;;;;;;;;5015701;28;20330;-87
2024/01/08 04:23:21;;;;;;;8.48;5.05;;;;;;;;;;5016291;28;20018;-88
2024/01/08 04:25:46;;;;;;;8.20;4.28;;;;;;;;;;5014971;28;20034;-88
2024/01/08 04:28:11;;;;;;;6.25;4.43;;;;;;;;;;5014938;28;20093;-88
2024/01/08 04:30:36;;;;;;;7.13;4.43;;;;;;;;;;5015421;28;20030;-87
2024/01/08 04:33:02;;;;;;;8.13;4.30;;;;;;;;;;5016975;28;20075;-87
2024/01/08 04:35:27;;;;;;;8.25;4.47;;;;;;;;;;5015402;28;20083;-88
2024/01/08 04:37:52;;;;;;;8.15;4.13;;;;;;;;;;5016066;28;20458;-87
2024/01/08 04:40:18;;;;;;;8.63;4.28;;;;;;;;;;5015325;28;20506;-88
2024/01/08 04:42:43;;;;;;;9.77;4.53;;;;;;;;;;5015433;28;20136;-88
2024/01/08 04:45:08;;;;;;;11.30;4.68;;;;;;;;;;5015964;28;20140;-88
2024/01/08 04:47:33;;;;;;;10.77;4.70;;;;;;;;;;5014873;28;20026;-87
2024/01/08 04:49:59;;;;;;;9.00;4.85;;;;;;;;;;5015199;28;20037;-88
2024/01/08 04:52:24;;;;;;;7.28;4.82;;;;;;;;;;5015020;28;20026;-87
2024/01/08 04:54:49;;;;;;;12.70;5.30;;;;;;;;;;5014296;28;20024;-87
2024/01/08 04:57:15;;;;;;;9.38;5.10;;;;;;;;;;5014488;28;20029;-87
2024/01/08 04:59:40;;;;;;;10.98;5.00;;;;;;;;;;5014444;28;20018;-87
2024/01/08 05:02:05;;;;;;;7.25;4.45;;;;;;;;;;5014525;28;20033;-87
2024/01/08 05:04:30;;;;;;;8.40;5.10;;;;;;;;;;5013977;28;20045;-87
2024/01/08 05:06:56;;;;;;;9.95;4.32;;;;;;;;;;5013805;28;20157;-88
2024/01/08 05:09:21;;;;;;;10.13;5.47;;;;;;;;;;5014272;28;20113;-87
2024/01/08 05:11:46;;;;;;;13.73;4.88;;;;;;;;;;5014669;28;20018;-88
2024/01/08 05:14:12;;;;;;;7.28;4.63;;;;;;;;;;5014758;28;20030;-88
2024/01/08 05:16:37;;;;;;;9.57;4.80;;;;;;;;;;5014703;28;20040;-87
2024/01/08 05:19:02;;;;;;;8.85;4.47;;;;;;;;;;5014377;28;20347;-88
2024/01/08 05:21:28;;;;;;;10.48;4.72;;;;;;;;;;5014397;28;20052;-88
2024/01/08 05:23:53;;;;;;;9.75;5.30;;;;;;;;;;5014500;28;20026;-88
2024/01/08 05:26:18;;;;;;;10.25;4.72;;;;;;;;;;5012751;28;20026;-88
2024/01/08 05:28:43;;;;;;;7.63;4.95;;;;;;;;;;5014319;28;20018;-87
2024/01/08 05:31:09;;;;;;;8.07;4.65;;;;;;;;;;5015128;28;20018;-89
2024/01/08 05:33:34;;;;;;;8.60;5.40;;;;;;;;;;5013079;28;20022;-89
2024/01/08 05:35:59;;;;;;;10.65;4.97;;;;;;;;;;5014244;28;20119;-88
2024/01/08 05:38:25;;;;;;;8.18;4.78;;;;;;;;;;5014421;28;20100;-88
2024/01/08 05:40:51;;;;;;;8.48;4.82;;;;;;;;;;5015053;28;20022;-88
2024/01/08 05:43:16;;;;;;;15.13;5.43;;;;;;;;;;5012917;28;20478;-89
2024/01/08 05:45:41;;;;;;;12.15;5.00;;;;;;;;;;5013841;28;20104;-87
2024/01/08 05:48:07;;;;;;;9.05;4.85;;;;;;;;;;5014453;28;20370;-89
2024/01/08 05:50:32;;;;;;;8.80;5.05;;;;;;;;;;5013480;28;20045;-88
2024/01/08 05:52:57;;;;;;;10.88;5.35;;;;;;;;;;5013615;28;20018;-89
2024/01/08 05:55:23;;;;;;;8.68;5.15;;;;;;;;;;5013769;28;20105;-89
2024/01/08 05:57:48;;;;;;;10.48;5.85;;;;;;;;;;5013955;28;20037;-88
2024/01/08 06:00:15;;;;;;;12.77;6.20;;;;;;;;;;5013488;28;20520;-89
2024/01/08 06:02:41;;;;;;;13.07;6.18;;;;;;;;;;5013895;28;20018;-87
2024/01/08 06:05:07;;;;;;;11.07;5.80;;;;;;;;;;5013242;28;20060;-88
2024/01/08 06:07:32;;;;;;;9.52;5.72;;;;;;;;;;5013191;28;20026;-88
2024/01/08 06:09:57;;;;;;;10.05;5.30;;;;;;;;;;5013569;28;20018;-89
2024/01/08 06:12:23;;;;;;;10.38;5.63;;;;;;;;;;5013186;28;20447;-88
2024/01/08 06:14:49;;;;;;;8.30;5.63;;;;;;;;;;5015998;28;20117;-88
2024/01/08 06:17:14;;;;;;;10.93;6.45;;;;;;;;;;5018326;28;20060;-89
2024/01/08 06:19:39;;;;;;;10.90;6.10;;;;;;;;;;5013737;28;20080;-89
2024/01/08 06:22:05;;;;;;;10.63;6.35;;;;;;;;;;5014360;28;20033;-87
2024/01/08 06:24:30;;;;;;;9.10;6.18;;;;;;;;;;5013638;28;20022;-88
2024/01/08 06:26:56;;;;;;;13.15;7.47;;;;;;;;;;5013316;28;20096;-86
2024/01/08 06:29:21;;;;;;;10.52;6.13;;;;;;;;;;5013520;28;20319;-86
2024/01/08 06:31:47;;;;;;;10.18;5.75;;;;;;;;;;5013461;28;20022;-86
2024/01/08 06:34:12;;;;;;;8.73;6.15;;;;;;;;;;5013339;28;20052;-86
2024/01/08 06:36:39;;;;;;;12.30;5.50;;;;;;;;;;5012421;28;20467;-88
2024/01/08 06:39:04;;;;;;;12.68;6.47;;;;;;;;;;5013481;28;20462;-86
2024/01/08 06:41:29;;;;;;;11.73;6.30;;;;;;;;;;5013776;28;20018;-87
2024/01/08 06:43:55;;;;;;;14.18;6.35;;;;;;;;;;5015193;28;20037;-86
2024/01/08 06:46:20;;;;;;;8.05;5.55;;;;;;;;;;5017294;28;20038;-86
2024/01/08 06:48:45;;;;;;;11.75;6.50;;;;;;;;;;5013966;28;20077;-86
2024/01/08 06:51:11;;;;;;;10.95;6.40;;;;;;;;;;5013437;28;20091;-86
2024/01/08 06:53:36;;;;;;;8.98;5.57;;;;;;;;;;5013945;28;20070;-86
2024/01/08 06:56:02;;;;;;;11.88;6.05;;;;;;;;;;5016234;28;20025;-85
2024/01/08 06:58:27;;;;;;;7.40;5.63;;;;;;;;;;5019584;28;20425;-86
2024/01/08 07:00:52;;;;;;;8.82;5.72;;;;;;;;;;5017512;28;20021;-85
2024/01/08 07:03:17;;;;;;;8.88;5.93;;;;;;;;;;5017278;28;20038;-85
2024/01/08 07:05:43;;;;;;;10.27;6.18;;;;;;;;;;5017471;28;20054;-86
2024/01/08 07:08:08;;;;;;;9.18;5.63;;;;;;;;;;5017797;28;20090;-85
2024/01/08 07:10:34;;;;;;;11.23;6.18;;;;;;;;;;5017969;28;20026;-86
2024/01/08 07:12:59;;;;;;;10.88;6.07;;;;;;;;;;5018229;28;20044;-85
2024/01/08 07:15:41;;;;;;;12.90;6.22;;;;;;;;;;5017929;28;20367;-85
2024/01/08 07:18:08;;;;;;;;;;;;;;;;;;5018848;28;20030;-86
2024/01/08 07:20:33;;;;;;;9.68;5.43;;;;;;;;;;5020269;28;20004;-86
2024/01/08 07:22:59;;;;;;;7.13;4.97;;;;;;;;;;5019034;28;20103;-86
2024/01/08 07:25:25;;;;;;;8.25;5.15;;;;;;;;;;5019049;28;20077;-86
2024/01/08 07:27:50;;;;;;;12.25;6.07;;;;;;;;;;5021607;28;20022;-86
2024/01/08 07:30:15;;;;;;;9.68;5.00;;;;;;;;;;5035057;28;20052;-85
2024/01/08 07:32:40;;;;;;;13.20;5.40;;;;;;;;;;5034194;28;20030;-86
2024/01/08 07:35:06;;;;;;;9.50;5.05;;;;;;;;;;5034605;28;20036;-86
2024/01/08 07:37:31;;;;;;;9.85;5.72;;;;;;;;;;5030592;28;20065;-85
2024/01/08 07:39:56;;;;;;;9.68;5.88;;;;;;;;;;5021687;28;20084;-81
2024/01/08 07:42:21;;;;;;;10.30;6.20;;;;;;;;;;5022049;28;20074;-87
2024/01/08 07:44:47;;;;;;;14.88;7.28;;;;;;;;;;5019770;28;20042;-86
2024/01/08 07:47:12;;;;;;;11.07;5.88;;;;;;;;;;5021273;28;20454;-85
2024/01/08 07:49:37;;;;;;;10.18;5.57;;;;;;;;;;5017704;28;20025;-86
2024/01/08 07:52:02;;;;;;;8.63;5.15;;;;;;;;;;5017016;28;20145;-86
2024/01/08 07:54:28;;;;;;;8.65;4.80;;;;;;;;;;5017161;28;20034;-85
2024/01/08 07:56:53;;;;;;;6.38;4.75;;;;;;;;;;5015862;28;20018;-81
2024/01/08 07:59:18;;;;;;;9.32;5.40;;;;;;;;;;5015301;28;20041;-81
2024/01/08 08:01:43;;;;;;;8.63;4.90;;;;;;;;;;5015683;28;20026;-81
2024/01/08 08:04:08;;;;;;;8.13;4.85;;;;;;;;;;5014070;28;20041;-82
2024/01/08 08:06:34;;;;;;;9.45;5.30;;;;;;;;;;5016250;28;20053;-81
2024/01/08 08:08:59;;;;;;;11.30;5.65;;;;;;;;;;5014687;28;20026;-80
2024/01/08 08:11:27;;;;;;;8.52;5.53;;;;;;;;;;5017153;28;20034;-81
2024/01/08 08:13:52;;;;;;;9.43;5.35;;;;;;;;;;5015597;28;20030;-81
2024/01/08 08:16:17;;;;;;;7.72;5.20;;;;;;;;;;5015063;28;20034;-79
2024/01/08 08:18:43;;;;;;;7.30;5.03;;;;;;;;;;5016309;28;20109;-81
2024/01/08 08:21:08;;;;;;;8.50;5.50;;;;;;;;;;5014856;28;20017;-81
2024/01/08 08:23:34;;;;;;;7.93;5.10;;;;;;;;;;5015555;28;20489;-79
2024/01/08 08:25:59;;;;;;;12.25;5.40;;;;;;;;;;5015863;28;20467;-79
2024/01/08 08:28:24;;;;;;;9.20;5.05;;;;;;;;;;5017836;28;20025;-77
2024/01/08 08:30:49;;;;;;;10.13;4.93;;;;;;;;;;5018346;28;20030;-78
2024/01/08 08:33:15;;;;;;;10.57;5.43;;;;;;;;;;5017957;28;20026;-78
2024/01/08 08:35:40;;;;;;;7.78;4.43;;;;;;;;;;5017098;28;20052;-80
2024/01/08 08:38:05;;;;;;;7.43;4.63;;;;;;;;;;5016299;28;20030;-77
2024/01/08 08:40:30;;;;;;;8.38;3.88;;;;;;;;;;5016373;28;20037;-77
2024/01/08 08:42:56;;;;;;;5.70;3.85;;;;;;;;;;5015553;28;20176;-79
2024/01/08 08:45:21;;;;;;;7.03;4.22;;;;;;;;;;5013593;28;20359;-78
2024/01/08 08:47:46;;;;;;;8.27;4.32;;;;;;;;;;5014430;28;20029;-81
2024/01/08 08:50:12;;;;;;;5.93;4.45;;;;;;;;;;5014732;28;20028;-81
2024/01/08 08:52:39;;;;;;;8.70;4.28;;;;;;;;;;5014644;28;20022;-81
2024/01/08 08:55:04;;;;;;;6.78;4.32;;;;;;;;;;5014976;28;20108;-81
2024/01/08 08:57:29;;;;;;;8.20;4.35;;;;;;;;;;5015739;28;20117;-80
2024/01/08 08:59:55;;;;;;;6.95;4.20;;;;;;;;;;5019031;28;20036;-79
2024/01/08 09:02:20;;;;;;;6.13;4.10;;;;;;;;;;5016364;28;20026;-80
2024/01/08 09:04:45;;;;;;;5.75;3.35;;;;;;;;;;5022117;28;20412;-80
2024/01/08 09:07:10;;;;;;;7.43;4.00;;;;;;;;;;5017358;28;20046;-79
2024/01/08 09:09:36;;;;;;;6.65;3.75;;;;;;;;;;5015354;28;20038;-80
2024/01/08 09:12:01;;;;;;;5.63;3.83;;;;;;;;;;5014093;28;20379;-80
2024/01/08 09:14:26;;;;;;;5.70;3.50;;;;;;;;;;5015074;28;20348;-79
2024/01/08 09:16:51;;;;;;;5.63;3.30;;;;;;;;;;5015239;28;20089;-80
2024/01/08 09:19:17;;;;;;;6.63;3.35;;;;;;;;;;5015357;28;20030;-80
2024/01/08 09:21:47;;;;;;;4.35;3.22;;;;;;;;;;5014732;28;20026;-78
2024/01/08 09:24:13;;;;;;;4.60;3.25;;;;;;;;;;5014720;28;20026;-79
2024/01/08 09:26:39;;;;;;;4.45;3.03;;;;;;;;;;5015114;28;20044;-82
2024/01/08 09:29:04;;;;;;;10.93;3.38;;;;;;;;;;5014976;28;20046;-80
2024/01/08 09:31:29;;;;;;;4.43;2.92;;;;;;;;;;5014294;28;20070;-81
2024/01/08 09:33:54;;;;;;;5.15;3.60;;;;;;;;;;5014213;28;20021;-79
2024/01/08 09:36:20;;;;;;;5.25;2.95;;;;;;;;;;5014154;28;20089;-79
2024/01/08 09:38:46;;;;;;;12.68;3.55;;;;;;;;;;5014103;28;20030;-82
2024/01/08 09:41:12;;;;;;;5.53;3.10;;;;;;;;;;5014173;28;20064;-80
2024/01/08 09:43:38;;;;;;;5.65;3.30;;;;;;;;;;5013913;28;20021;-79
2024/01/08 09:46:05;;;;;;;5.70;3.22;;;;;;;;;;5014370;28;20025;-82
2024/01/08 09:48:31;;;;;;;7.10;3.28;;;;;;;;;;5013684;28;20505;-81
2024/01/08 09:50:58;;;;;;;9.02;3.72;;;;;;;;;;5013717;28;20474;-79
2024/01/08 09:53:26;;;;;;;5.43;3.28;;;;;;;;;;5013386;28;20018;-82
2024/01/08 09:55:52;;;;;;;4.88;3.50;;;;;;;;;;5013645;28;20080;-81
2024/01/08 09:58:17;;;;;;;6.63;3.85;;;;;;;;;;5014898;28;20378;-84
2024/01/08 10:00:42;;;;;;;4.28;3.08;;;;;;;;;;5014660;28;20026;-83
2024/01/08 10:03:08;;;;;;;5.70;3.70;;;;;;;;;;5013880;28;20046;-83
2024/01/08 10:05:34;;;;;;;4.70;3.42;;;;;;;;;;5012665;28;20453;-80
2024/01/08 10:08:00;;;;;;;6.00;3.45;;;;;;;;;;5014193;28;20525;-80
2024/01/08 10:10:26;;;;;;;5.80;3.60;;;;;;;;;;5012644;28;20065;-81
2024/01/08 10:12:53;;;;;;;5.90;4.35;;;;;;;;;;5014006;28;20403;-78
2024/01/08 10:15:19;;;;;;;5.85;3.40;;;;;;;;;;5013797;28;20091;-77
2024/01/08 10:17:48;;;;;;;5.45;3.83;;;;;;;;;;5014074;28;20022;-81
2024/01/08 10:20:13;;;;;;;5.93;3.67;;;;;;;;;;5014568;28;20062;-81
2024/01/08 10:22:39;;;;;;;7.93;4.35;;;;;;;;;;5013752;28;20030;-83
2024/01/08 10:25:06;;;;;;;7.63;3.88;;;;;;;;;;4996346;28;20403;-83
2024/01/08 10:27:31;;;;;;;6.18;3.58;;;;;;;;;;5014395;28;20053;-81
2024/01/08 10:29:57;;;;;;;7.65;4.00;;;;;;;;;;5013954;28;20049;-80
2024/01/08 10:32:25;;;;;;;5.88;3.75;;;;;;;;;;5013406;28;20128;-80
2024/01/08 10:34:51;;;;;;;5.97;3.38;;;;;;;;;;5013691;28;20021;-81
2024/01/08 10:37:17;;;;;;;5.85;3.63;;;;;;;;;;4996428;28;20381;-83
2024/01/08 10:39:44;;;;;;;10.15;4.07;;;;;;;;;;5012173;28;20029;-83
2024/01/08 10:42:09;;;;;;;6.03;3.92;;;;;;;;;;5013814;28;20525;-81
2024/01/08 10:44:35;;;;;;;10.85;4.68;;;;;;;;;;5013841;28;20030;-81
2024/01/08 10:47:05;;;;;;;11.75;3.70;;;;;;;;;;5013621;28;20546;-80
2024/01/08 10:49:32;;;;;;;7.03;4.13;;;;;;;;;;5013980;28;20022;-80
2024/01/08 10:51:58;;;;;;;7.10;4.10;;;;;;;;;;5013875;28;20018;-80
2024/01/08 10:54:27;;;;;;;7.72;3.92;;;;;;;;;;5013377;28;20075;-76
2024/01/08 10:56:54;;;;;;;6.28;4.45;;;;;;;;;;5012958;28;20030;-80
2024/01/08 10:59:22;;;;;;;7.15;4.30;;;;;;;;;;5013288;28;20033;-80
2024/01/08 11:01:48;;;;;;;12.30;5.90;;;;;;;;;;5013632;28;20029;-79
2024/01/08 11:04:13;;;;;;;10.50;5.80;;;;;;;;;;5012942;28;20014;-79
2024/01/08 11:06:40;;;;;;;7.00;4.18;;;;;;;;;;5013420;28;20049;-79
2024/01/08 11:09:22;;;;;;;7.43;4.35;;;;;;;;;;5013273;28;20097;-79
2024/01/08 11:11:48;;;;;;;13.65;4.40;;;;;;;;;;5011478;28;20033;-79
2024/01/08 11:14:13;;;;;;;6.15;4.32;;;;;;;;;;5011478;28;20030;-79
2024/01/08 11:16:39;;;;;;;6.35;4.55;;;;;;;;;;5012582;28;20036;-79
2024/01/08 11:19:17;;;;;;;6.20;3.75;;;;;;;;;;5013124;28;20397;-79
2024/01/08 11:21:42;;;;;;;6.28;4.28;;;;;;;;;;5013090;28;20046;-79
2024/01/08 11:24:09;;;;;;;7.82;4.10;;;;;;;;;;5012813;28;20018;-79
2024/01/08 11:26:39;;;;;;;6.90;4.30;;;;;;;;;;5013268;28;20049;-79
2024/01/08 11:29:06;;;;;;;7.65;4.22;;;;;;;;;;5012184;28;20018;-79
2024/01/08 11:31:38;;;;;;;7.20;4.10;;;;;;;;;;5012912;28;20113;-79
2024/01/08 11:34:06;;;;;;;8.57;4.53;;;;;;;;;;5013086;28;20025;-80
2024/01/08 11:36:47;;;;;;;9.18;4.60;;;;;;;;;;5013057;28;20034;-80
2024/01/08 11:39:17;;;;;;;6.80;3.92;;;;;;;;;;5013144;28;20109;-80
2024/01/08 11:41:42;;;;;;;6.72;4.82;;;;;;;;;;5012882;28;20458;-80
2024/01/08 11:44:07;;;;;;;5.95;3.90;;;;;;;;;;5014266;28;20029;-81
2024/01/08 11:46:34;;;;;;;14.95;7.32;;;;;;;;;;5016531;28;20026;-80
2024/01/08 11:49:00;;;;;;;7.60;4.40;;;;;;;;;;5017457;28;20026;-83
2024/01/08 11:51:25;;;;;;;9.23;4.78;;;;;;;;;;5017148;28;20036;-82
2024/01/08 11:53:51;;;;;;;6.07;4.22;;;;;;;;;;5016490;28;20026;-82
2024/01/08 11:56:17;;;;;;;6.70;3.95;;;;;;;;;;5016584;28;20454;-82
2024/01/08 11:58:43;;;;;;;8.98;4.85;;;;;;;;;;5016937;28;20092;-81
2024/01/08 12:01:26;;;;;;;8.02;4.40;;;;;;;;;;5016362;28;20088;-83
2024/01/08 12:03:59;;;;;;;7.43;5.07;;;;;;;;;;5016749;28;20509;-83
2024/01/08 12:06:25;;;;;;;6.15;4.30;;;;;;;;;;5016631;28;20120;-81
2024/01/08 12:08:51;;;;;;;7.80;4.25;;;;;;;;;;5016238;28;20030;-82
2024/01/08 12:11:16;;;;;;;8.40;4.47;;;;;;;;;;5015540;28;20030;-81
2024/01/08 12:13:41;;;;;;;9.95;4.38;;;;;;;;;;5016468;28;20067;-81
2024/01/08 12:16:07;;;;;;;5.45;3.90;;;;;;;;;;5016183;28;20034;-81
2024/01/08 12:18:33;;;;;;;6.88;4.38;;;;;;;;;;5015949;28;20030;-80
2024/01/08 12:20:58;;;;;;;6.75;3.72;;;;;;;;;;5016057;28;20033;-81
2024/01/08 12:23:24;;;;;;;10.05;4.50;;;;;;;;;;5016369;28;20374;-80
2024/01/08 12:25:49;;;;;;;7.88;4.40;;;;;;;;;;5016147;28;20423;-80
2024/01/08 12:28:14;;;;;;;6.95;4.03;;;;;;;;;;5015785;28;20514;-80
2024/01/08 12:30:40;;;;;;;7.50;4.65;;;;;;;;;;5016353;28;20034;-79
2024/01/08 12:33:05;;;;;;;7.43;4.05;;;;;;;;;;5015715;28;20030;-79
2024/01/08 12:35:31;;;;;;;6.60;3.67;;;;;;;;;;5016057;28;20064;-80
2024/01/08 12:37:56;;;;;;;7.55;3.90;;;;;;;;;;5015577;28;20489;-81
2024/01/08 12:40:22;;;;;;;7.03;3.40;;;;;;;;;;5015681;28;20184;-81
2024/01/08 12:42:47;;;;;;;8.15;3.92;;;;;;;;;;5015387;28;20026;-80
2024/01/08 12:45:12;;;;;;;5.40;3.85;;;;;;;;;;5016123;28;20474;-80
2024/01/08 12:47:38;;;;;;;6.28;3.60;;;;;;;;;;5016951;28;20100;-80
2024/01/08 12:50:04;;;;;;;5.55;3.78;;;;;;;;;;5015873;28;20041;-81
2024/01/08 12:52:29;;;;;;;5.97;3.92;;;;;;;;;;5016697;28;20022;-81
2024/01/08 12:54:55;;;;;;;5.13;3.40;;;;;;;;;;5016732;28;20025;-80
2024/01/08 12:57:21;;;;;;;8.05;3.72;;;;;;;;;;5016366;28;20030;-79
2024/01/08 12:59:51;;;;;;;6.70;3.30;;;;;;;;;;5016041;28;20021;-78
2024/01/08 13:02:16;;;;;;;4.85;3.17;;;;;;;;;;5015410;28;20108;-79
2024/01/08 13:04:42;;;;;;;6.07;3.70;;;;;;;;;;5016137;28;20053;-78
2024/01/08 13:07:09;;;;;;;6.18;3.47;;;;;;;;;;5015060;28;20438;-79
2024/01/08 13:09:34;;;;;;;9.25;3.88;;;;;;;;;;5015443;28;20030;-81
2024/01/08 13:11:59;;;;;;;6.53;3.55;;;;;;;;;;5014736;28;20053;-82
2024/01/08 13:14:24;;;;;;;5.85;3.92;;;;;;;;;;5014931;28;20509;-80
2024/01/08 13:16:50;;;;;;;6.15;3.67;;;;;;;;;;5014538;28;20327;-77
2024/01/08 13:19:15;;;;;;;7.60;3.60;;;;;;;;;;5014896;28;20026;-78
2024/01/08 13:21:41;;;;;;;5.07;3.53;;;;;;;;;;5014509;28;20041;-79
2024/01/08 13:24:11;;;;;;;5.65;3.88;;;;;;;;;;5015308;28;20053;-78
2024/01/08 13:26:39;;;;;;;6.88;4.28;;;;;;;;;;5014585;28;20101;-79
2024/01/08 13:29:05;;;;;;;4.75;3.35;;;;;;;;;;5014591;28;20053;-78
2024/01/08 13:31:31;;;;;;;9.93;4.60;;;;;;;;;;5013403;28;20601;-78
2024/01/08 13:33:56;;;;;;;5.60;3.53;;;;;;;;;;5013543;28;20104;-79
2024/01/08 13:36:22;;;;;;;5.55;3.80;;;;;;;;;;5014619;28;20481;-79
2024/01/08 13:38:47;;;;;;;5.50;3.63;;;;;;;;;;5014681;28;20156;-80
2024/01/08 13:41:12;;;;;;;4.85;3.78;;;;;;;;;;5014411;28;20057;-79
2024/01/08 13:43:38;;;;;;;7.15;3.90;;;;;;;;;;5015030;28;20030;-80
2024/01/08 13:46:03;;;;;;;5.70;3.97;;;;;;;;;;5014272;28;20017;-79
2024/01/08 13:48:28;;;;;;;6.65;4.00;;;;;;;;;;5017903;28;20475;-79
2024/01/08 13:50:57;;;;;;;6.15;4.07;;;;;;;;;;5013758;28;20117;-77
2024/01/08 13:53:22;;;;;;;5.95;4.40;;;;;;;;;;5013253;28;20419;-78
2024/01/08 13:55:47;;;;;;;6.65;3.70;;;;;;;;;;5013893;28;20120;-76
2024/01/08 13:58:13;;;;;;;6.25;3.92;;;;;;;;;;5014874;28;20323;-79
2024/01/08 14:00:39;;;;;;;5.45;4.22;;;;;;;;;;5014279;28;20021;-81
2024/01/08 14:03:04;;;;;;;8.55;3.80;;;;;;;;;;5014348;28;20095;-77
2024/01/08 14:05:29;;;;;;;6.22;4.20;;;;;;;;;;5015655;28;20029;-77
2024/01/08 14:07:54;;;;;;;6.47;4.45;;;;;;;;;;5013196;28;20050;-77
2024/01/08 14:10:20;;;;;;;6.32;4.15;;;;;;;;;;5014681;28;20026;-79
2024/01/08 14:12:46;;;;;;;7.45;3.83;;;;;;;;;;5013415;28;20022;-80
2024/01/08 14:15:11;;;;;;;6.57;4.00;;;;;;;;;;5015022;28;20022;-78
2024/01/08 14:17:43;;;;;;;8.20;4.30;;;;;;;;;;5015642;28;20490;-80
2024/01/08 14:20:11;;;;;;;7.43;3.90;;;;;;;;;;5014403;28;20018;-78
2024/01/08 14:22:40;;;;;;;8.43;4.00;;;;;;;;;;5012491;28;20029;-79
2024/01/08 14:25:07;;;;;;;7.68;3.75;;;;;;;;;;5014112;28;20030;-79
2024/01/08 14:27:33;;;;;;;5.38;4.03;;;;;;;;;;5013845;28;20117;-78
2024/01/08 14:29:59;;;;;;;7.25;3.92;;;;;;;;;;5013866;28;20383;-79
2024/01/08 14:32:25;;;;;;;7.03;3.58;;;;;;;;;;5012448;28;20089;-80